createdAt,value
2018-12-29T00:02:01.124Z,51.13
2018-12-29T00:04:30.602Z,45.87
2018-12-29T00:07:00.041Z,53.67
2018-12-29T00:09:29.690Z,50.50
2018-12-29T00:11:59.164Z,53.53
2018-12-29T00:14:28.588Z,49.47
2018-12-29T00:16:58.072Z,49.20
2018-12-29T00:19:27.554Z,52.23
2018-12-29T00:21:57.007Z,48.43
2018-12-29T00:24:26.482Z,51.40
2018-12-29T00:26:55.978Z,50.27
2018-12-29T00:29:25.441Z,53.17
2018-12-29T00:31:54.919Z,50.23
2018-12-29T00:34:24.388Z,49.53
2018-12-29T00:36:53.866Z,54.97
2018-12-29T00:39:23.336Z,54.93
2018-12-29T00:41:52.805Z,50.27
2018-12-29T00:44:22.240Z,51.33
2018-12-29T00:46:51.713Z,49.43
2018-12-29T00:49:21.287Z,48.47
2018-12-29T00:51:50.744Z,44.80
2018-12-29T00:54:20.243Z,48.10
2018-12-29T00:56:49.731Z,50.77
2018-12-29T00:59:19.192Z,46.17
2018-12-29T01:01:48.670Z,49.43
2018-12-29T01:04:18.158Z,44.57
2018-12-29T01:06:47.593Z,48.47
2018-12-29T01:09:17.036Z,46.57
2018-12-29T01:11:46.508Z,46.67
2018-12-29T01:14:15.987Z,52.13
2018-12-29T01:16:45.438Z,48.13
2018-12-29T01:19:14.944Z,46.67
2018-12-29T01:21:44.394Z,48.50
2018-12-29T01:24:13.884Z,50.30
2018-12-29T01:26:43.371Z,50.27
2018-12-29T01:29:12.821Z,43.47
2018-12-29T01:31:42.277Z,47.90
2018-12-29T01:34:11.767Z,47.13
2018-12-29T01:36:41.295Z,47.70
2018-12-29T01:39:10.749Z,48.53
2018-12-29T01:41:40.223Z,49.57
2018-12-29T01:44:09.717Z,44.90
2018-12-29T01:46:39.191Z,50.20
2018-12-29T01:49:08.713Z,48.47
2018-12-29T01:51:38.197Z,50.87
2018-12-29T01:54:07.731Z,45.67
2018-12-29T01:56:37.194Z,45.77
2018-12-29T01:59:06.679Z,43.90
2018-12-29T02:01:36.155Z,42.93
2018-12-29T02:04:05.618Z,48.17
2018-12-29T02:06:35.125Z,45.93
2018-12-29T02:09:05.503Z,45.23
2018-12-29T02:11:35.005Z,43.87
2018-12-29T02:14:04.566Z,46.23
2018-12-29T02:16:34.036Z,46.43
2018-12-29T02:19:03.500Z,45.37
2018-12-29T02:21:33.048Z,45.23
2018-12-29T02:24:02.631Z,45.17
2018-12-29T02:26:32.100Z,47.57
2018-12-29T02:29:01.579Z,44.53
2018-12-29T02:31:33.893Z,45.13
2018-12-29T02:34:03.356Z,45.77
2018-12-29T02:36:32.819Z,44.17
2018-12-29T02:39:02.275Z,47.83
2018-12-29T02:41:31.749Z,44.20
2018-12-29T02:44:01.207Z,49.47
2018-12-29T02:46:30.671Z,45.37
2018-12-29T02:49:00.175Z,47.43
2018-12-29T02:51:29.653Z,45.30
2018-12-29T02:53:59.135Z,48.40
2018-12-29T02:56:31.266Z,43.67
2018-12-29T02:59:00.735Z,45.57
2018-12-29T03:01:30.196Z,46.13
2018-12-29T03:03:59.746Z,44.27
2018-12-29T03:06:29.220Z,44.63
2018-12-29T03:08:58.669Z,45.53
2018-12-29T03:11:28.129Z,43.93
2018-12-29T03:13:57.616Z,46.83
2018-12-29T03:16:27.080Z,48.77
2018-12-29T03:18:56.561Z,44.80
2018-12-29T03:21:26.034Z,46.47
2018-12-29T03:23:55.476Z,50.43
2018-12-29T03:26:24.915Z,48.37
2018-12-29T03:28:54.421Z,45.37
2018-12-29T03:31:23.865Z,44.50
2018-12-29T03:33:53.329Z,46.63
2018-12-29T03:36:22.816Z,44.93
2018-12-29T03:38:52.350Z,48.77
2018-12-29T03:41:21.828Z,41.80
2018-12-29T03:43:51.333Z,49.80
2018-12-29T03:46:20.849Z,49.40
2018-12-29T03:48:50.331Z,45.63
2018-12-29T03:51:19.797Z,45.97
2018-12-29T03:53:49.334Z,46.50
2018-12-29T03:56:18.814Z,45.57
2018-12-29T03:58:48.288Z,46.57
2018-12-29T04:01:17.739Z,45.90
2018-12-29T04:03:47.216Z,46.00
2018-12-29T04:06:16.695Z,47.03
2018-12-29T04:09:24.064Z,48.10
2018-12-29T04:11:53.614Z,47.70
2018-12-29T04:14:23.067Z,43.37
2018-12-29T04:16:52.618Z,51.67
2018-12-29T04:19:22.098Z,49.93
2018-12-29T04:21:51.538Z,50.80
2018-12-29T04:24:20.985Z,46.57
2018-12-29T04:26:50.468Z,48.37
2018-12-29T04:29:19.917Z,50.13
2018-12-29T04:31:49.391Z,50.97
2018-12-29T04:34:18.832Z,43.53
2018-12-29T04:36:48.279Z,51.40
2018-12-29T04:39:17.762Z,52.83
2018-12-29T04:41:47.221Z,53.97
2018-12-29T04:44:16.690Z,60.33
2018-12-29T04:46:46.177Z,58.63
2018-12-29T04:49:15.640Z,59.00
2018-12-29T04:51:45.090Z,59.70
2018-12-29T04:54:17.599Z,58.53
2018-12-29T04:56:49.729Z,62.70
2018-12-29T04:59:21.999Z,59.27
2018-12-29T05:01:51.461Z,62.80
2018-12-29T05:04:20.913Z,61.57
2018-12-29T05:06:50.379Z,64.70
2018-12-29T05:09:19.860Z,60.70
2018-12-29T05:11:49.305Z,59.57
2018-12-29T05:14:18.745Z,58.77
2018-12-29T05:16:48.223Z,58.67
2018-12-29T05:19:17.675Z,58.20
2018-12-29T05:21:47.144Z,62.97
2018-12-29T05:24:16.640Z,53.27
2018-12-29T05:26:46.098Z,53.57
2018-12-29T05:29:15.574Z,60.03
2018-12-29T05:31:45.137Z,53.97
2018-12-29T05:34:14.587Z,58.37
2018-12-29T05:36:44.019Z,56.60
2018-12-29T05:39:13.507Z,53.83
2018-12-29T05:41:42.952Z,53.27
2018-12-29T05:44:12.424Z,54.97
2018-12-29T05:46:41.863Z,52.53
2018-12-29T05:49:11.318Z,50.57
2018-12-29T05:51:40.827Z,53.93
2018-12-29T05:54:10.303Z,54.80
2018-12-29T05:56:39.659Z,53.57
2018-12-29T05:59:09.132Z,48.43
2018-12-29T06:01:38.613Z,50.93
2018-12-29T06:04:08.078Z,52.37
2018-12-29T06:06:37.564Z,48.80
2018-12-29T06:09:09.397Z,46.23
2018-12-29T06:11:38.843Z,48.73
2018-12-29T06:14:08.305Z,50.63
2018-12-29T06:16:37.789Z,49.20
2018-12-29T06:19:07.425Z,45.03
2018-12-29T06:21:36.865Z,49.90
2018-12-29T06:24:06.355Z,45.87
2018-12-29T06:26:37.424Z,49.03
2018-12-29T06:29:06.866Z,50.53
2018-12-29T06:31:36.342Z,45.07
2018-12-29T06:34:05.805Z,53.20
2018-12-29T06:36:38.276Z,49.40
2018-12-29T06:39:07.730Z,49.07
2018-12-29T06:41:37.163Z,49.63
2018-12-29T06:44:06.654Z,52.87
2018-12-29T06:46:36.171Z,44.43
2018-12-29T06:49:05.666Z,50.27
2018-12-29T06:51:35.101Z,53.77
2018-12-29T06:54:04.570Z,48.87
2018-12-29T06:56:34.043Z,51.07
2018-12-29T06:59:05.040Z,47.03
2018-12-29T07:01:34.483Z,45.10
2018-12-29T07:04:03.991Z,52.37
2018-12-29T07:06:33.458Z,46.33
2018-12-29T07:09:02.969Z,46.77
2018-12-29T07:11:32.430Z,47.50
2018-12-29T07:14:01.897Z,47.00
2018-12-29T07:16:31.365Z,46.00
2018-12-29T07:19:00.845Z,46.93
2018-12-29T07:21:30.323Z,46.63
2018-12-29T07:23:59.806Z,47.43
2018-12-29T07:26:29.254Z,46.23
2018-12-29T07:28:58.775Z,50.23
2018-12-29T07:31:28.216Z,44.20
2018-12-29T07:33:57.697Z,48.63
2018-12-29T07:36:30.171Z,49.43
2018-12-29T07:38:59.617Z,40.10
2018-12-29T07:41:29.064Z,46.97
2018-12-29T07:43:58.533Z,43.57
2018-12-29T07:46:28.000Z,43.03
2018-12-29T07:48:58.998Z,41.70
2018-12-29T07:51:28.636Z,43.53
2018-12-29T07:53:58.106Z,44.70
2018-12-29T07:56:27.563Z,43.73
2018-12-29T07:58:59.972Z,44.70
2018-12-29T08:01:29.519Z,43.20
2018-12-29T08:03:59.008Z,43.70
2018-12-29T08:09:07.939Z,41.33
2018-12-29T08:11:37.411Z,43.87
2018-12-29T08:14:06.870Z,43.87
2018-12-29T08:16:36.382Z,44.57
2018-12-29T08:19:05.801Z,49.13
2018-12-29T08:21:35.254Z,42.13
2018-12-29T08:24:04.816Z,47.13
2018-12-29T08:26:34.293Z,44.10
2018-12-29T08:29:03.743Z,42.33
2018-12-29T08:31:33.230Z,46.30
2018-12-29T08:34:02.672Z,43.30
2018-12-29T08:36:32.135Z,43.50
2018-12-29T08:39:01.613Z,43.27
2018-12-29T08:41:31.092Z,48.70
2018-12-29T08:44:00.536Z,47.73
2018-12-29T08:46:30.061Z,45.90
2018-12-29T08:48:59.505Z,43.93
2018-12-29T08:51:28.983Z,42.00
2018-12-29T08:53:58.499Z,44.40
2018-12-29T08:56:30.693Z,39.67
2018-12-29T08:59:00.158Z,40.73
2018-12-29T09:01:29.623Z,46.47
2018-12-29T09:03:59.078Z,47.10
2018-12-29T09:06:28.595Z,45.07
2018-12-29T09:08:58.036Z,46.57
2018-12-29T09:11:27.558Z,44.27
2018-12-29T09:13:57.007Z,43.00
2018-12-29T09:16:26.455Z,49.03
2018-12-29T09:18:55.940Z,45.33
2018-12-29T09:21:25.452Z,44.50
2018-12-29T09:23:54.926Z,46.17
2018-12-29T09:26:24.497Z,44.77
2018-12-29T09:28:53.959Z,42.37
2018-12-29T09:31:23.398Z,48.47
2018-12-29T09:33:54.524Z,44.13
2018-12-29T09:36:26.581Z,48.73
2018-12-29T09:38:57.753Z,43.33
2018-12-29T09:41:28.214Z,44.33
2018-12-29T09:43:57.661Z,44.13
2018-12-29T09:46:27.125Z,46.73
2018-12-29T09:48:56.590Z,43.37
2018-12-29T09:51:26.042Z,45.73
2018-12-29T09:53:55.492Z,44.47
2018-12-29T09:56:25.016Z,46.20
2018-12-29T09:58:54.494Z,47.00
2018-12-29T10:01:24.001Z,48.33
2018-12-29T10:03:53.515Z,48.20
2018-12-29T10:06:22.973Z,46.30
2018-12-29T10:08:55.283Z,49.83
2018-12-29T10:11:24.773Z,48.33
2018-12-29T10:13:54.285Z,45.13
2018-12-29T10:16:23.746Z,49.60
2018-12-29T10:18:53.216Z,46.67
2018-12-29T10:21:22.673Z,48.47
2018-12-29T10:23:55.068Z,48.13
2018-12-29T10:26:24.587Z,44.57
2018-12-29T10:28:54.038Z,43.33
2018-12-29T10:31:26.200Z,45.63
2018-12-29T10:33:57.310Z,50.87
2018-12-29T10:36:26.791Z,47.50
2018-12-29T10:38:56.299Z,45.67
2018-12-29T10:41:27.314Z,45.07
2018-12-29T10:43:59.508Z,45.90
2018-12-29T10:46:29.004Z,45.23
2018-12-29T10:48:58.470Z,45.07
2018-12-29T10:51:27.915Z,45.17
2018-12-29T10:53:57.383Z,43.17
2018-12-29T10:56:26.891Z,44.50
2018-12-29T10:58:56.353Z,43.23
2018-12-29T11:01:27.436Z,43.67
2018-12-29T11:03:57.081Z,40.80
2018-12-29T11:06:26.560Z,40.27
2018-12-29T11:08:56.002Z,42.60
2018-12-29T11:11:25.478Z,45.80
2018-12-29T11:13:55.001Z,40.77
2018-12-29T11:16:24.506Z,44.57
2018-12-29T11:18:54.014Z,44.73
2018-12-29T11:21:23.459Z,43.07
2018-12-29T11:23:52.962Z,42.10
2018-12-29T11:26:22.476Z,44.67
2018-12-29T11:28:51.962Z,43.13
2018-12-29T11:31:21.460Z,41.33
2018-12-29T11:33:51.006Z,41.93
2018-12-29T11:36:20.459Z,41.37
2018-12-29T11:38:49.961Z,39.97
2018-12-29T11:41:19.428Z,43.33
2018-12-29T11:43:48.954Z,40.20
2018-12-29T11:46:18.442Z,39.97
2018-12-29T11:48:47.907Z,40.87
2018-12-29T11:51:17.902Z,39.93
2018-12-29T11:53:47.380Z,40.30
2018-12-29T11:56:16.850Z,40.20
2018-12-29T11:58:46.313Z,34.37
2018-12-29T12:01:15.774Z,40.53
2018-12-29T12:03:45.302Z,35.70
2018-12-29T12:06:14.756Z,39.27
2018-12-29T12:08:44.302Z,36.30
2018-12-29T12:11:13.800Z,39.40
2018-12-29T12:13:43.608Z,36.93
2018-12-29T12:16:13.132Z,36.27
2018-12-29T12:18:42.618Z,36.30
2018-12-29T12:21:15.054Z,37.20
2018-12-29T12:23:44.546Z,39.50
2018-12-29T12:26:16.650Z,33.97
2018-12-29T12:28:45.212Z,32.50
2018-12-29T12:31:14.660Z,34.40
2018-12-29T12:33:44.126Z,31.20
2018-12-29T12:36:13.584Z,32.10
2018-12-29T12:38:43.055Z,32.93
2018-12-29T12:41:12.655Z,32.03
2018-12-29T12:43:42.136Z,32.23
2018-12-29T12:46:11.979Z,30.37
2018-12-29T12:48:43.232Z,30.60
2018-12-29T12:51:12.723Z,29.57
2018-12-29T12:53:43.730Z,32.20
2018-12-29T12:56:13.190Z,28.40
2018-12-29T12:58:42.674Z,30.60
2018-12-29T13:01:12.712Z,29.23
2018-12-29T13:03:42.252Z,29.57
2018-12-29T13:06:11.752Z,26.90
2018-12-29T13:08:41.221Z,28.50
2018-12-29T13:11:10.731Z,29.07
2018-12-29T13:13:40.570Z,31.63
2018-12-29T13:16:10.038Z,28.37
2018-12-29T13:18:39.489Z,29.30
2018-12-29T13:21:08.992Z,28.53
2018-12-29T13:23:38.547Z,28.30
2018-12-29T13:26:08.460Z,27.60
2018-12-29T13:28:37.950Z,27.53
2018-12-29T13:31:07.424Z,26.57
2018-12-29T13:33:36.918Z,27.23
2018-12-29T13:36:06.952Z,25.03
2018-12-29T13:38:36.418Z,25.13
2018-12-29T13:41:05.876Z,25.27
2018-12-29T13:43:35.361Z,25.73
2018-12-29T13:46:07.673Z,27.47
2018-12-29T13:48:37.306Z,25.70
2018-12-29T13:51:06.868Z,27.73
2018-12-29T13:53:36.329Z,23.97
2018-12-29T13:56:07.367Z,26.97
2018-12-29T13:58:36.878Z,27.40
2018-12-29T14:01:06.318Z,26.00
2018-12-29T14:03:35.853Z,25.07
2018-12-29T14:06:05.407Z,25.90
2018-12-29T14:08:34.873Z,28.77
2018-12-29T14:11:04.514Z,26.40
2018-12-29T14:13:33.990Z,26.37
2018-12-29T14:16:03.431Z,25.87
2018-12-29T14:18:32.874Z,24.27
2018-12-29T14:21:02.467Z,23.90
2018-12-29T14:23:31.930Z,24.07
2018-12-29T14:26:01.488Z,23.77
2018-12-29T14:28:31.010Z,23.23
2018-12-29T14:31:00.487Z,22.53
2018-12-29T14:33:30.141Z,22.07
2018-12-29T14:35:59.646Z,21.87
2018-12-29T14:38:29.203Z,21.00
2018-12-29T14:40:58.668Z,20.47
2018-12-29T14:43:28.154Z,21.70
2018-12-29T14:45:57.718Z,22.23
2018-12-29T14:48:27.218Z,23.03
2018-12-29T14:50:56.663Z,23.23
2018-12-29T14:53:26.195Z,21.60
2018-12-29T14:55:55.761Z,24.77
2018-12-29T14:58:25.291Z,24.63
2018-12-29T15:00:54.832Z,22.73
2018-12-29T15:03:24.439Z,21.03
2018-12-29T15:05:53.951Z,24.27
2018-12-29T15:08:23.721Z,25.03
2018-12-29T15:10:53.221Z,22.60
2018-12-29T15:13:23.091Z,22.47
2018-12-29T15:15:52.685Z,21.23
2018-12-29T15:18:22.693Z,23.57
2018-12-29T15:20:52.634Z,24.10
2018-12-29T15:23:22.103Z,21.63
2018-12-29T15:25:51.590Z,22.27
2018-12-29T15:28:21.057Z,21.53
2018-12-29T15:30:50.981Z,22.53
2018-12-29T15:33:20.464Z,19.60
2018-12-29T15:35:49.950Z,22.87
2018-12-29T15:38:19.445Z,23.10
2018-12-29T15:40:49.418Z,23.70
2018-12-29T15:43:18.910Z,23.03
2018-12-29T15:45:48.374Z,22.93
2018-12-29T15:48:17.860Z,20.67
2018-12-29T15:50:47.338Z,23.63
2018-12-29T15:53:16.779Z,22.87
2018-12-29T15:55:46.247Z,23.77
2018-12-29T15:58:16.104Z,23.57
2018-12-29T16:00:45.580Z,23.80
2018-12-29T16:03:29.387Z,23.33
2018-12-29T16:05:59.113Z,25.37
2018-12-29T16:08:28.976Z,24.17
2018-12-29T16:10:58.477Z,23.60
2018-12-29T16:13:27.955Z,22.47
2018-12-29T16:15:57.428Z,23.00
2018-12-29T16:18:27.380Z,23.30
2018-12-29T16:20:56.901Z,25.83
2018-12-29T16:23:26.409Z,22.10
2018-12-29T16:25:55.863Z,21.97
2018-12-29T16:28:25.343Z,26.10
2018-12-29T16:30:54.788Z,24.87
2018-12-29T16:33:24.365Z,24.13
2018-12-29T16:35:54.278Z,22.13
2018-12-29T16:38:23.763Z,22.13
2018-12-29T16:40:57.768Z,24.07
2018-12-29T16:43:24.555Z,21.13
2018-12-29T16:45:54.008Z,23.50
2018-12-29T16:48:23.466Z,22.10
2018-12-29T16:50:53.294Z,23.27
2018-12-29T16:53:29.203Z,23.97
2018-12-29T16:55:54.196Z,25.07
2018-12-29T16:58:23.681Z,27.17
2018-12-29T17:00:53.505Z,23.83
2018-12-29T17:03:23.130Z,23.10
2018-12-29T17:05:52.645Z,23.67
2018-12-29T17:08:22.122Z,22.30
2018-12-29T17:10:52.123Z,24.23
2018-12-29T17:13:21.833Z,23.80
2018-12-29T17:15:51.302Z,23.67
2018-12-29T17:18:20.781Z,24.37
2018-12-29T17:20:53.029Z,26.87
2018-12-29T17:23:22.468Z,26.10
2018-12-29T17:25:53.470Z,26.00
2018-12-29T17:28:22.912Z,28.17
2018-12-29T17:30:52.358Z,28.97
2018-12-29T17:33:21.882Z,25.50
2018-12-29T17:35:51.415Z,27.70
2018-12-29T17:38:21.249Z,28.63
2018-12-29T17:40:50.759Z,32.20
2018-12-29T17:43:20.252Z,30.77
2018-12-29T17:45:49.860Z,32.27
2018-12-29T17:48:19.334Z,33.67
2018-12-29T17:50:48.917Z,35.77
2018-12-29T17:53:18.678Z,34.10
2018-12-29T17:55:48.145Z,32.80
2018-12-29T17:58:17.611Z,34.77
2018-12-29T18:00:47.069Z,34.53
2018-12-29T18:03:16.730Z,35.27
2018-12-29T18:05:46.198Z,34.03
2018-12-29T18:08:15.674Z,35.37
2018-12-29T18:10:45.187Z,32.40
2018-12-29T18:13:14.636Z,37.57
2018-12-29T18:15:44.219Z,34.67
2018-12-29T18:18:13.714Z,37.40
2018-12-29T18:20:43.367Z,42.43
2018-12-29T18:23:12.893Z,37.27
2018-12-29T18:25:42.360Z,42.03
2018-12-29T18:28:11.837Z,39.73
2018-12-29T18:30:41.319Z,46.33
2018-12-29T18:33:11.286Z,43.70
2018-12-29T18:35:40.749Z,45.13
2018-12-29T18:38:10.230Z,42.43
2018-12-29T18:40:39.712Z,47.97
2018-12-29T18:43:09.193Z,43.47
2018-12-29T18:45:38.670Z,45.90
2018-12-29T18:48:08.603Z,45.03
2018-12-29T18:50:38.172Z,44.43
2018-12-29T18:53:07.638Z,48.20
2018-12-29T18:55:37.100Z,42.30
2018-12-29T18:58:06.617Z,43.33
2018-12-29T19:00:36.598Z,42.33
2018-12-29T19:03:06.051Z,44.13
2018-12-29T19:05:35.555Z,47.63
2018-12-29T19:08:05.096Z,45.53
2018-12-29T19:10:34.581Z,43.37
2018-12-29T19:13:04.432Z,42.07
2018-12-29T19:15:34.248Z,44.40
2018-12-29T19:18:03.748Z,45.23
2018-12-29T19:20:33.690Z,41.77
2018-12-29T19:23:03.339Z,43.17
2018-12-29T19:25:32.828Z,41.37
2018-12-29T19:28:02.763Z,49.10
2018-12-29T19:30:32.515Z,41.50
2018-12-29T19:33:02.274Z,39.00
2018-12-29T19:35:31.849Z,46.80
2018-12-29T19:38:01.307Z,40.77
2018-12-29T19:40:31.268Z,41.53
2018-12-29T19:43:01.271Z,44.90
2018-12-29T19:45:30.741Z,42.80
2018-12-29T19:48:00.689Z,44.90
2018-12-29T19:50:30.714Z,41.97
2018-12-29T19:53:00.203Z,42.90
2018-12-29T19:55:29.669Z,42.67
2018-12-29T19:57:59.152Z,41.30
2018-12-29T20:00:28.938Z,39.43
2018-12-29T20:02:58.415Z,38.57
2018-12-29T20:05:27.995Z,41.10
2018-12-29T20:07:57.525Z,37.53
2018-12-29T20:10:27.004Z,35.47
2018-12-29T20:12:56.485Z,33.93
2018-12-29T20:15:26.057Z,38.93
2018-12-29T20:17:55.519Z,35.67
2018-12-29T20:20:25.068Z,34.93
2018-12-29T20:22:54.516Z,33.17
2018-12-29T20:25:24.020Z,33.37
2018-12-29T20:27:53.516Z,30.60
2018-12-29T20:30:23.020Z,30.93
2018-12-29T20:32:58.935Z,32.40
2018-12-29T20:35:23.814Z,27.23
2018-12-29T20:37:53.281Z,27.83
2018-12-29T20:40:22.814Z,21.33
2018-12-29T20:42:52.265Z,18.87
2018-12-29T20:45:21.744Z,18.40
2018-12-29T20:47:51.360Z,23.30
2018-12-29T20:50:20.839Z,17.23
2018-12-29T20:52:50.325Z,13.97
2018-12-29T20:55:21.314Z,11.13
2018-12-29T20:57:50.825Z,14.43
2018-12-29T21:00:20.364Z,12.73
2018-12-29T21:02:49.893Z,13.97
2018-12-29T21:05:19.403Z,11.80
2018-12-29T21:07:48.897Z,13.37
2018-12-29T21:10:18.379Z,11.53
2018-12-29T21:12:47.867Z,14.77
2018-12-29T21:15:17.426Z,12.07
2018-12-29T21:17:46.993Z,10.77
2018-12-29T21:20:17.525Z,16.97
2018-12-29T21:22:47.194Z,14.43
2018-12-29T21:25:16.798Z,13.93
2018-12-29T21:27:46.335Z,10.47
2018-12-29T21:30:15.806Z,13.73
2018-12-29T21:32:45.264Z,14.13
2018-12-29T21:35:14.761Z,14.33
2018-12-29T21:37:44.250Z,11.97
2018-12-29T21:40:13.709Z,12.43
2018-12-29T21:42:43.339Z,13.97
2018-12-29T21:45:12.880Z,12.67
2018-12-29T21:47:42.379Z,10.37
2018-12-29T21:50:11.879Z,12.90
2018-12-29T21:52:41.441Z,11.23
2018-12-29T21:55:12.983Z,13.03
2018-12-29T21:57:42.419Z,9.63
2018-12-29T22:00:11.920Z,13.23
2018-12-29T22:02:41.406Z,12.53
2018-12-29T22:05:10.883Z,11.17
2018-12-29T22:07:42.365Z,14.77
2018-12-29T22:10:13.501Z,12.57
2018-12-29T22:12:42.974Z,13.10
2018-12-29T22:15:12.484Z,11.83
2018-12-29T22:17:42.024Z,11.90
2018-12-29T22:20:12.031Z,8.10
2018-12-29T22:22:41.486Z,10.30
2018-12-29T22:25:11.053Z,9.67
2018-12-29T22:27:40.513Z,15.07
2018-12-29T22:30:10.074Z,11.93
2018-12-29T22:32:40.111Z,9.10
2018-12-29T22:35:09.583Z,10.47
2018-12-29T22:37:39.131Z,12.50
2018-12-29T22:40:08.873Z,10.83
2018-12-29T22:42:38.561Z,13.27
2018-12-29T22:45:08.241Z,12.17
2018-12-29T22:47:39.389Z,14.03
2018-12-29T22:50:09.427Z,13.10
2018-12-29T22:52:38.909Z,16.53
2018-12-29T22:55:08.375Z,15.60
2018-12-29T22:57:38.205Z,14.37
2018-12-29T23:00:13.326Z,15.03
2018-12-29T23:02:42.792Z,13.90
2018-12-29T23:05:12.263Z,14.33
2018-12-29T23:07:41.725Z,15.73
2018-12-29T23:10:11.177Z,15.93
2018-12-29T23:12:40.701Z,18.00
2018-12-29T23:15:10.389Z,12.67
2018-12-29T23:17:39.827Z,12.47
2018-12-29T23:20:09.453Z,13.30
2018-12-29T23:22:38.911Z,13.60
2018-12-29T23:25:08.429Z,13.00
2018-12-29T23:27:38.294Z,14.13
2018-12-29T23:30:07.825Z,16.50
2018-12-29T23:32:37.354Z,14.90
2018-12-29T23:35:06.938Z,15.33
2018-12-29T23:37:36.374Z,16.00
2018-12-29T23:40:07.511Z,13.73
2018-12-29T23:42:37.140Z,14.90
2018-12-29T23:45:07.055Z,15.97
2018-12-29T23:47:37.229Z,16.67
2018-12-29T23:50:08.500Z,12.87
2018-12-29T23:52:38.417Z,16.80
2018-12-29T23:55:08.026Z,17.10
2018-12-29T23:57:37.638Z,13.73
